ADDS METAR Data INFO
IDs: Format: Raw Decoded Include TAF

Data at: 0354 UTC 17 Oct 2017

KEBG 170335Z AUTO 35004KT 10SM CLR 17/10 A3025 RMK AO2 T01700104
KEBG 170315Z AUTO 35004KT 10SM CLR 17/10 A3025 RMK AO2 T01700100
KEBG 170255Z AUTO 35005KT 10SM CLR 17/11 A3024 RMK AO2 T01660105
KEBG 170235Z AUTO 35006KT 10SM CLR 18/10 A3024 RMK AO2 T01760097
KEBG 170215Z AUTO 36006KT 10SM CLR 18/10 A3024 RMK AO2 T01820097
KEBG 170155Z AUTO 36005KT 10SM CLR 19/10 A3023 RMK AO2 T01890098
KEBG 170135Z AUTO 36006KT 10SM CLR 19/11 A3023 RMK AO2 T01870106
KEBG 170115Z AUTO 36005KT 10SM CLR 20/11 A3022 RMK AO2 T01950107
KEBG 170055Z AUTO 36004KT 10SM CLR 21/10 A3021 RMK AO2 T02070103
KEBG 170035Z AUTO 36005KT 10SM CLR 22/10 A3020 RMK AO2 T02150097
KEBG 170015Z AUTO 36006KT 10SM CLR 23/09 A3020 RMK AO2 T02290090
KEBG 162355Z AUTO 36006KT 10SM CLR 24/08 A3019 RMK AO2 T02410083 10280 20241
KEBG 162335Z AUTO 36009KT 10SM CLR 25/08 A3018 RMK AO2 T02540076
KEBG 162315Z AUTO 36010KT 10SM CLR 26/08 A3018 RMK AO2 T02620078
KEBG 162255Z AUTO 36010KT 10SM CLR 27/07 A3017 RMK AO2 T02680073
KEBG 162235Z AUTO 36013G17KT 10SM CLR 27/07 A3017 RMK AO2 T02710071
KEBG 162215Z AUTO 36012KT 10SM CLR 28/07 A3017 RMK AO2 T02750071
KEBG 162155Z AUTO 01010G17KT 10SM CLR 28/07 A3017 RMK AO2 T02770065
KEBG 162135Z AUTO 36012G19KT 10SM CLR 28/07 A3017 RMK AO2 T02780065
KEBG 162115Z AUTO 35010KT 10SM CLR 28/07 A3018 RMK AO2 T02780070
KEBG 162055Z AUTO 34010G17KT 10SM CLR 28/07 A3018 RMK AO2 T02790068
KEBG 162035Z AUTO 35009KT 10SM CLR 28/08 A3018 RMK AO2 T02800075
KEBG 162015Z AUTO 35013G17KT 10SM CLR 28/08 A3019 RMK AO2 T02750076
KEBG 161955Z AUTO 01013G20KT 10SM SCT100 27/08 A3020 RMK AO2 T02730083
KEBG 161935Z AUTO 34013G18KT 10SM SCT100 27/09 A3021 RMK AO2 T02710089
KEBG 161915Z AUTO 36012G16KT 10SM CLR 27/09 A3023 RMK AO2 T02680090
KEBG 161855Z AUTO 33015G19KT 10SM CLR 27/09 A3023 RMK AO2 T02650091
KEBG 161835Z AUTO 34014G18KT 10SM CLR 26/09 A3025 RMK AO2 T02590086
KEBG 161815Z AUTO 35009KT 10SM CLR 26/08 A3026 RMK AO2 T02550082
KEBG 161755Z AUTO 34010G18KT 10SM CLR 25/08 A3027 RMK AO2 T02500078 10251 20201
KEBG 161735Z AUTO 35012G19KT 10SM SCT049 25/07 A3028 RMK AO2 T02450073
KEBG 161715Z AUTO 34009G14KT 10SM OVC049 23/08 A3029 RMK AO2 T02340077
KEBG 161655Z AUTO 36012G16KT 10SM OVC047 23/07 A3030 RMK AO2 T02250073
KEBG 161635Z AUTO 34013G21KT 10SM OVC045 22/07 A3030 RMK AO2 T02220069
KEBG 161615Z AUTO 33013KT 10SM BKN045 BKN085 23/07 A3030 RMK AO2 T02290066
KEBG 161555Z AUTO 35014G21KT 10SM SCT045 SCT075 SCT095 22/06 A3030 RMK AO2 T02200060
KEBG 161535Z AUTO 33014G21KT 10SM SCT045 SCT095 SCT120 22/06 A3029 RMK AO2 T02200058
KEBG 161515Z AUTO 34014KT 10SM BKN045 OVC095 21/06 A3029 RMK AO2 T02080061
KEBG 161455Z AUTO 32013G17KT 10SM OVC045 21/06 A3030 RMK AO2 T02050064
KEBG 161435Z AUTO 34009G15KT 10SM BKN045 OVC065 20/07 A3029 RMK AO2 T02030067
KEBG 161415Z AUTO 35010KT 10SM OVC049 21/06 A3029 RMK AO2 T02050063
KEBG 161355Z AUTO 35012KT 10SM OVC049 21/07 A3028 RMK AO2 LTG DSNT SE T02050068
KEBG 161335Z AUTO 35010G18KT 10SM BKN049 BKN070 OVC080 21/07 A3027 RMK AO2 T02050065
KEBG 161315Z AUTO 34012KT 10SM BKN070 OVC080 21/07 A3026 RMK AO2 T02050067
KEBG 161255Z AUTO 33011G16KT 10SM SCT060 BKN080 20/06 A3025 RMK AO2 T02030063
KEBG 161235Z AUTO 34015G20KT 10SM BKN060 OVC080 21/06 A3023 RMK AO2 T02050056
KEBG 161215Z AUTO 34013G17KT 10SM SCT045 OVC060 21/06 A3023 RMK AO2 T02080064
KEBG 161155Z AUTO 34010KT 10SM BKN045 OVC050 21/07 A3023 RMK AO2 T02080070 10247 20207
KEBG 161135Z AUTO 34010KT 10SM BKN045 OVC050 21/07 A3023 RMK AO2 T02100070
KEBG 161115Z AUTO 33010G15KT 10SM BKN050 BKN075 21/08 A3021 RMK AO2 LTG DSNT SE T02100075
KEBG 161055Z AUTO 34011G14KT 10SM OVC050 22/08 A3020 RMK AO2 T02150075
KEBG 161035Z AUTO 34010G15KT 10SM BKN050 BKN065 22/07 A3020 RMK AO2 T02150069
KEBG 161015Z AUTO 34011G16KT 10SM BKN048 OVC065 22/07 A3019 RMK AO2 T02200068
KEBG 160955Z AUTO 34013G18KT 10SM SCT048 BKN050 OVC060 22/07 A3019 RMK AO2 T02230071
KEBG 160935Z AUTO 34010G16KT 10SM SCT038 BKN049 OVC060 23/08 A3018 RMK AO2 T02250079
KEBG 160915Z AUTO 34013G18KT 10SM SCT038 BKN044 OVC049 23/08 A3019 RMK AO2 T02280083
KEBG 160855Z AUTO 34013G17KT 10SM OVC038 23/09 A3019 RMK AO2 T02300092
KEBG 160835Z AUTO 35014G21KT 10SM OVC036 23/10 A3018 RMK AO2 T02330095
KEBG 160815Z AUTO 35012G20KT 10SM OVC036 24/10 A3018 RMK AO2 T02360103
KEBG 160755Z AUTO 35014G19KT 10SM BKN038 OVC045 24/11 A3019 RMK AO2 T02380108
KEBG 160735Z AUTO 36014G21KT 10SM BKN040 OVC055 24/11 A3019 RMK AO2 LTG DSNT SE T02400110
KEBG 160715Z AUTO 35013G17KT 10SM OVC042 24/12 A3018 RMK AO2 T02410117
KEBG 160655Z AUTO 35011G17KT 10SM OVC038 24/12 A3018 RMK AO2 T02410124
KEBG 160635Z AUTO 36013G21KT 10SM BKN036 24/13 A3018 RMK AO2 T02430133
KEBG 160615Z AUTO 36011G22KT 10SM SCT036 25/14 A3018 RMK AO2 LTG DSNT SE T02460144
KEBG 160555Z AUTO 36010G18KT 10SM BKN036 25/17 A3018 RMK AO2 LTG DSNT SE AND W T02480166 10301 20248 403350217
KEBG 160535Z AUTO 01010KT 10SM OVC036 25/17 A3018 RMK AO2 LTG DSNT SE T02510172
KEBG 160515Z AUTO 01015G19KT 10SM OVC036 25/17 A3019 RMK AO2 T02520172
KEBG 160455Z AUTO 01013G18KT 10SM OVC036 25/18 A3019 RMK AO2 T02530177
KEBG 160435Z AUTO 36009KT 10SM OVC036 26/18 A3019 RMK AO2 LTG DSNT SW AND W T02550183
KEBG 160415Z AUTO 01010G16KT 10SM BKN034 BKN042 BKN060 26/18 A3019 RMK AO2 LTG DSNT SW AND W T02580182
KEBG 160355Z AUTO 01018G23KT 10SM SCT034 BKN041 BKN048 26/19 A3017 RMK AO2 LTG DSNT SW AND W T02610187
KEBG 160335Z AUTO 02014G22KT 10SM SCT032 BKN041 BKN048 27/20 A3016 RMK AO2 LTG DSNT W T02680195
KEBG 160315Z AUTO 02014G18KT 10SM BKN034 OVC040 28/20 A3015 RMK AO2 LTG DSNT W T02750203
KEBG 160255Z AUTO 02010G14KT 10SM OVC034 28/21 A3015 RMK AO2 LTG DSNT W T02840210
KEBG 160235Z AUTO 03013G17KT 10SM OVC034 29/22 A3014 RMK AO2 LTG DSNT W T02870215
KEBG 160215Z AUTO 02006KT 10SM BKN034 BKN042 28/23 A3012 RMK AO2 LTG DSNT NW T02800230
KEBG 160155Z AUTO 04003KT 10SM SCT042 27/23 A3012 RMK AO2 LTG DSNT NW T02740232
KEBG 160135Z AUTO 04003KT 10SM CLR 28/23 A3010 RMK AO2 T02820228
KEBG 160115Z AUTO 00000KT 10SM CLR 29/23 A3009 RMK AO2 LTG DSNT NW T02850226
KEBG 160055Z AUTO 06003KT 10SM CLR 29/23 A3009 RMK AO2 LTG DSNT W AND NW T02850225
KEBG 160035Z AUTO 06003KT 10SM CLR 29/22 A3007 RMK AO2 LTG DSNT W AND NW T02890220
KEBG 160015Z AUTO 07004KT 10SM CLR 30/22 A3006 RMK AO2 LTG DSNT W AND NW T02960215
KEBG 152355Z AUTO 08005KT 10SM CLR 30/21 A3005 RMK AO2 LTG DSNT W AND NW T03020210 10335 20302
KEBG 152335Z AUTO 08008KT 10SM SCT060 31/21 A3004 RMK AO2 LTG DSNT NW T03100205
KEBG 152315Z AUTO 08011KT 10SM SCT060 32/21 A3004 RMK AO2 LTG DSNT NW T03220211
KEBG 152255Z AUTO 02005KT 10SM CLR 32/19 A3004 RMK AO2 LTG DSNT NW T03230194
KEBG 152235Z AUTO 03006KT 10SM CLR 32/19 A3004 RMK AO2 LTG DSNT SE T03220188
KEBG 152215Z AUTO 05008KT 10SM SCT055 33/19 A3003 RMK AO2 T03250188
KEBG 152155Z AUTO 04008KT 10SM CLR 33/19 A3004 RMK AO2 LTG DSNT E SE AND NW T03300185
KEBG 152135Z AUTO 03010KT 10SM CLR 33/19 A3003 RMK AO2 LTG DSNT E T03290188
KEBG 152115Z AUTO 35008G14KT 10SM SCT047 34/19 A3002 RMK AO2 LTG DSNT E T03350193
KEBG 152055Z AUTO 01008KT 10SM SCT047 BKN060 32/20 A3002 RMK AO2 T03240202
KEBG 152035Z AUTO 36009G14KT 10SM SCT047 SCT060 SCT070 33/19 A3003 RMK AO2 LTG DSNT E T03250190
KEBG 152015Z AUTO 01006KT 10SM CLR 33/19 A3004 RMK AO2 T03320192
KEBG 151955Z AUTO 33006KT 10SM SCT070 33/19 A3005 RMK AO2 T03310194
KEBG 151935Z AUTO 34008G16KT 10SM SCT048 SCT070 33/19 A3005 RMK AO2 LTG DSNT NW T03320192
KEBG 151915Z AUTO 01010KT 10SM SCT045 SCT060 33/19 A3006 RMK AO2 LTG DSNT E T03270188
KEBG 151855Z AUTO 35009G16KT 10SM SCT039 SCT045 SCT060 32/20 A3007 RMK AO2 LTG DSNT E T03220202
KEBG 151835Z AUTO 01011G15KT 10SM SCT040 SCT046 SCT060 32/20 A3008 RMK AO2 LTG DSNT E T03220204
KEBG 151815Z AUTO 36010G16KT 10SM SCT040 BKN046 BKN060 32/20 A3009 RMK AO2 LTG DSNT E T03160204
KEBG 151755Z AUTO 36008KT 10SM SCT033 BKN040 BKN046 31/20 A3010 RMK AO2 T03100200 10317 20217
KEBG 151735Z AUTO 36010KT 10SM BKN033 BKN045 31/21 A3010 RMK AO2 T03060205
KEBG 151715Z AUTO 36003KT 10SM SCT033 SCT041 SCT050 31/20 A3010 RMK AO2 T03110203
KEBG 151655Z AUTO 36003KT 10SM SCT025 31/21 A3010 RMK AO2 T03050210
KEBG 151635Z AUTO 34003KT 10SM SCT021 29/22 A3010 RMK AO2 T02940215
KEBG 151615Z AUTO 35003KT 10SM SCT019 29/22 A3010 RMK AO2 T02940224
KEBG 151555Z AUTO 00000KT 10SM SCT013 28/23 A3009 RMK AO2 T02830229